sensor_id;sensor_type;location;lat;lon;timestamp;P1;durP1;ratioP1;P2;durP2;ratioP2
3337;SDS011;1682;49.286;10.788;2023-03-26T00:00:21;2.10;;;1.10;;
3337;SDS011;1682;49.286;10.788;2023-03-26T00:02:48;2.80;;;0.90;;
3337;SDS011;1682;49.286;10.788;2023-03-26T00:05:17;2.63;;;1.20;;
3337;SDS011;1682;49.286;10.788;2023-03-26T00:07:45;1.23;;;1.20;;
3337;SDS011;1682;49.286;10.788;2023-03-26T00:10:13;3.53;;;1.60;;
3337;SDS011;1682;49.286;10.788;2023-03-26T00:12:40;3.70;;;1.33;;
3337;SDS011;1682;49.286;10.788;2023-03-26T00:15:07;7.57;;;2.67;;
3337;SDS011;1682;49.286;10.788;2023-03-26T00:17:35;3.47;;;1.50;;
3337;SDS011;1682;49.286;10.788;2023-03-26T00:20:02;5.17;;;1.50;;
3337;SDS011;1682;49.286;10.788;2023-03-26T00:22:31;1.80;;;1.40;;
3337;SDS011;1682;49.286;10.788;2023-03-26T00:24:58;4.00;;;1.63;;
3337;SDS011;1682;49.286;10.788;2023-03-26T00:27:25;1.03;;;1.03;;
3337;SDS011;1682;49.286;10.788;2023-03-26T00:29:53;1.97;;;1.30;;
3337;SDS011;1682;49.286;10.788;2023-03-26T00:32:21;3.80;;;1.43;;
3337;SDS011;1682;49.286;10.788;2023-03-26T00:34:52;6.83;;;1.80;;
3337;SDS011;1682;49.286;10.788;2023-03-26T00:37:19;2.40;;;1.50;;
3337;SDS011;1682;49.286;10.788;2023-03-26T00:39:52;5.30;;;1.10;;
3337;SDS011;1682;49.286;10.788;2023-03-26T00:42:23;4.67;;;1.70;;
3337;SDS011;1682;49.286;10.788;2023-03-26T00:44:50;1.40;;;1.30;;
3337;SDS011;1682;49.286;10.788;2023-03-26T00:47:21;6.80;;;1.53;;
3337;SDS011;1682;49.286;10.788;2023-03-26T00:49:49;1.23;;;1.13;;
3337;SDS011;1682;49.286;10.788;2023-03-26T00:52:16;3.27;;;1.30;;
3337;SDS011;1682;49.286;10.788;2023-03-26T00:54:43;6.83;;;1.50;;
3337;SDS011;1682;49.286;10.788;2023-03-26T00:57:12;7.33;;;1.90;;
3337;SDS011;1682;49.286;10.788;2023-03-26T00:59:40;2.77;;;1.33;;
3337;SDS011;1682;49.286;10.788;2023-03-26T01:02:09;4.73;;;1.30;;
3337;SDS011;1682;49.286;10.788;2023-03-26T01:04:41;1.73;;;1.50;;
3337;SDS011;1682;49.286;10.788;2023-03-26T01:07:10;2.10;;;1.20;;
3337;SDS011;1682;49.286;10.788;2023-03-26T01:09:39;2.07;;;1.87;;
3337;SDS011;1682;49.286;10.788;2023-03-26T01:12:10;4.20;;;1.33;;
3337;SDS011;1682;49.286;10.788;2023-03-26T01:14:41;2.77;;;1.43;;
3337;SDS011;1682;49.286;10.788;2023-03-26T01:17:08;3.40;;;2.00;;
3337;SDS011;1682;49.286;10.788;2023-03-26T01:19:38;3.23;;;1.57;;
3337;SDS011;1682;49.286;10.788;2023-03-26T01:22:07;1.63;;;1.07;;
3337;SDS011;1682;49.286;10.788;2023-03-26T01:24:37;1.53;;;0.90;;
3337;SDS011;1682;49.286;10.788;2023-03-26T01:27:16;6.93;;;1.30;;
3337;SDS011;1682;49.286;10.788;2023-03-26T01:29:49;3.57;;;1.20;;
3337;SDS011;1682;49.286;10.788;2023-03-26T01:32:23;2.30;;;1.17;;
3337;SDS011;1682;49.286;10.788;2023-03-26T01:34:59;3.03;;;1.23;;
3337;SDS011;1682;49.286;10.788;2023-03-26T01:37:32;2.93;;;1.40;;
3337;SDS011;1682;49.286;10.788;2023-03-26T01:40:04;2.10;;;1.53;;
3337;SDS011;1682;49.286;10.788;2023-03-26T01:42:35;6.73;;;1.20;;
3337;SDS011;1682;49.286;10.788;2023-03-26T01:45:05;1.83;;;1.20;;
3337;SDS011;1682;49.286;10.788;2023-03-26T01:47:33;3.47;;;1.80;;
3337;SDS011;1682;49.286;10.788;2023-03-26T01:50:01;3.83;;;1.23;;
3337;SDS011;1682;49.286;10.788;2023-03-26T01:52:29;3.37;;;1.37;;
3337;SDS011;1682;49.286;10.788;2023-03-26T01:54:56;5.50;;;1.50;;
3337;SDS011;1682;49.286;10.788;2023-03-26T01:57:28;2.73;;;1.10;;
3337;SDS011;1682;49.286;10.788;2023-03-26T02:00:01;2.50;;;1.50;;
3337;SDS011;1682;49.286;10.788;2023-03-26T02:02:35;3.13;;;1.50;;
3337;SDS011;1682;49.286;10.788;2023-03-26T02:05:07;6.23;;;1.40;;
3337;SDS011;1682;49.286;10.788;2023-03-26T02:07:36;3.10;;;1.33;;
3337;SDS011;1682;49.286;10.788;2023-03-26T02:10:06;3.60;;;1.47;;
3337;SDS011;1682;49.286;10.788;2023-03-26T02:12:36;5.10;;;1.53;;
3337;SDS011;1682;49.286;10.788;2023-03-26T02:15:04;5.37;;;1.33;;
3337;SDS011;1682;49.286;10.788;2023-03-26T02:17:32;2.33;;;1.40;;
3337;SDS011;1682;49.286;10.788;2023-03-26T02:20:00;2.73;;;1.30;;
3337;SDS011;1682;49.286;10.788;2023-03-26T02:22:34;2.60;;;1.40;;
3337;SDS011;1682;49.286;10.788;2023-03-26T02:25:06;4.40;;;1.40;;
3337;SDS011;1682;49.286;10.788;2023-03-26T02:27:34;1.20;;;0.90;;
3337;SDS011;1682;49.286;10.788;2023-03-26T02:30:03;3.50;;;2.70;;
3337;SDS011;1682;49.286;10.788;2023-03-26T02:32:30;1.37;;;1.27;;
3337;SDS011;1682;49.286;10.788;2023-03-26T02:34:59;1.43;;;1.23;;
3337;SDS011;1682;49.286;10.788;2023-03-26T02:37:26;2.70;;;1.50;;
3337;SDS011;1682;49.286;10.788;2023-03-26T02:39:54;3.73;;;1.47;;
3337;SDS011;1682;49.286;10.788;2023-03-26T02:42:21;6.50;;;1.80;;
3337;SDS011;1682;49.286;10.788;2023-03-26T02:44:49;4.30;;;1.53;;
3337;SDS011;1682;49.286;10.788;2023-03-26T02:47:17;4.07;;;2.03;;
3337;SDS011;1682;49.286;10.788;2023-03-26T02:49:44;2.60;;;1.70;;
3337;SDS011;1682;49.286;10.788;2023-03-26T02:52:12;3.33;;;1.60;;
3337;SDS011;1682;49.286;10.788;2023-03-26T02:54:42;5.73;;;2.00;;
3337;SDS011;1682;49.286;10.788;2023-03-26T02:57:10;3.33;;;2.23;;
3337;SDS011;1682;49.286;10.788;2023-03-26T02:59:37;2.13;;;1.67;;
3337;SDS011;1682;49.286;10.788;2023-03-26T03:02:04;2.10;;;1.60;;
3337;SDS011;1682;49.286;10.788;2023-03-26T03:04:32;5.70;;;1.80;;
3337;SDS011;1682;49.286;10.788;2023-03-26T03:07:00;3.53;;;1.33;;
3337;SDS011;1682;49.286;10.788;2023-03-26T03:09:27;1.93;;;1.43;;
3337;SDS011;1682;49.286;10.788;2023-03-26T03:11:54;4.10;;;1.83;;
3337;SDS011;1682;49.286;10.788;2023-03-26T03:14:21;6.63;;;1.80;;
3337;SDS011;1682;49.286;10.788;2023-03-26T03:16:49;3.27;;;1.53;;
3337;SDS011;1682;49.286;10.788;2023-03-26T03:19:17;2.63;;;1.67;;
3337;SDS011;1682;49.286;10.788;2023-03-26T03:21:47;2.40;;;1.33;;
3337;SDS011;1682;49.286;10.788;2023-03-26T03:24:14;2.10;;;1.60;;
3337;SDS011;1682;49.286;10.788;2023-03-26T03:26:42;4.50;;;2.00;;
3337;SDS011;1682;49.286;10.788;2023-03-26T03:29:11;3.83;;;2.00;;
3337;SDS011;1682;49.286;10.788;2023-03-26T03:31:38;5.07;;;1.60;;
3337;SDS011;1682;49.286;10.788;2023-03-26T03:34:06;2.17;;;1.60;;
3337;SDS011;1682;49.286;10.788;2023-03-26T03:36:33;6.07;;;1.73;;
3337;SDS011;1682;49.286;10.788;2023-03-26T03:39:03;2.83;;;1.87;;
3337;SDS011;1682;49.286;10.788;2023-03-26T03:41:30;2.40;;;1.40;;
3337;SDS011;1682;49.286;10.788;2023-03-26T03:43:58;2.50;;;1.60;;
3337;SDS011;1682;49.286;10.788;2023-03-26T03:46:25;2.10;;;1.30;;
3337;SDS011;1682;49.286;10.788;2023-03-26T03:48:52;1.53;;;1.37;;
3337;SDS011;1682;49.286;10.788;2023-03-26T03:51:20;3.50;;;1.33;;
3337;SDS011;1682;49.286;10.788;2023-03-26T03:53:47;4.27;;;1.30;;
3337;SDS011;1682;49.286;10.788;2023-03-26T03:56:16;3.70;;;1.47;;
3337;SDS011;1682;49.286;10.788;2023-03-26T03:58:48;2.30;;;1.50;;
3337;SDS011;1682;49.286;10.788;2023-03-26T04:01:15;2.60;;;1.90;;
3337;SDS011;1682;49.286;10.788;2023-03-26T04:03:42;1.73;;;1.30;;
3337;SDS011;1682;49.286;10.788;2023-03-26T04:06:10;2.80;;;1.90;;
3337;SDS011;1682;49.286;10.788;2023-03-26T04:08:37;2.70;;;1.67;;
3337;SDS011;1682;49.286;10.788;2023-03-26T04:11:05;2.57;;;1.40;;
3337;SDS011;1682;49.286;10.788;2023-03-26T04:13:33;4.33;;;1.67;;
3337;SDS011;1682;49.286;10.788;2023-03-26T04:16:01;4.53;;;1.60;;
3337;SDS011;1682;49.286;10.788;2023-03-26T04:18:28;2.73;;;1.40;;
3337;SDS011;1682;49.286;10.788;2023-03-26T04:20:56;3.10;;;1.40;;
3337;SDS011;1682;49.286;10.788;2023-03-26T04:23:26;3.20;;;1.40;;
3337;SDS011;1682;49.286;10.788;2023-03-26T04:25:54;2.23;;;1.37;;
3337;SDS011;1682;49.286;10.788;2023-03-26T04:28:24;3.00;;;1.60;;
3337;SDS011;1682;49.286;10.788;2023-03-26T04:30:56;2.10;;;1.30;;
3337;SDS011;1682;49.286;10.788;2023-03-26T04:33:25;2.87;;;1.63;;
3337;SDS011;1682;49.286;10.788;2023-03-26T04:35:52;2.90;;;1.50;;
3337;SDS011;1682;49.286;10.788;2023-03-26T04:38:25;3.17;;;1.63;;
3337;SDS011;1682;49.286;10.788;2023-03-26T04:40:52;1.50;;;1.40;;
3337;SDS011;1682;49.286;10.788;2023-03-26T04:43:24;1.40;;;1.30;;
3337;SDS011;1682;49.286;10.788;2023-03-26T04:45:51;2.47;;;1.17;;
3337;SDS011;1682;49.286;10.788;2023-03-26T04:48:20;3.93;;;1.50;;
3337;SDS011;1682;49.286;10.788;2023-03-26T04:50:47;3.13;;;1.40;;
3337;SDS011;1682;49.286;10.788;2023-03-26T04:53:16;2.17;;;1.57;;
3337;SDS011;1682;49.286;10.788;2023-03-26T04:55:44;3.70;;;1.50;;
3337;SDS011;1682;49.286;10.788;2023-03-26T04:58:13;1.37;;;1.10;;
3337;SDS011;1682;49.286;10.788;2023-03-26T05:00:40;7.03;;;2.27;;
3337;SDS011;1682;49.286;10.788;2023-03-26T05:03:08;1.63;;;1.43;;
3337;SDS011;1682;49.286;10.788;2023-03-26T05:05:37;7.27;;;1.50;;
3337;SDS011;1682;49.286;10.788;2023-03-26T05:08:04;5.83;;;2.20;;
3337;SDS011;1682;49.286;10.788;2023-03-26T05:10:31;3.07;;;2.43;;
3337;SDS011;1682;49.286;10.788;2023-03-26T05:12:59;8.77;;;2.67;;
3337;SDS011;1682;49.286;10.788;2023-03-26T05:15:26;14.07;;;9.23;;
3337;SDS011;1682;49.286;10.788;2023-03-26T05:17:53;5.37;;;4.77;;
3337;SDS011;1682;49.286;10.788;2023-03-26T05:20:21;7.13;;;3.13;;
3337;SDS011;1682;49.286;10.788;2023-03-26T05:22:51;3.77;;;2.73;;
3337;SDS011;1682;49.286;10.788;2023-03-26T05:25:19;2.83;;;2.43;;
3337;SDS011;1682;49.286;10.788;2023-03-26T05:27:46;4.80;;;2.60;;
3337;SDS011;1682;49.286;10.788;2023-03-26T05:30:14;4.80;;;3.37;;
3337;SDS011;1682;49.286;10.788;2023-03-26T05:32:41;4.03;;;2.87;;
3337;SDS011;1682;49.286;10.788;2023-03-26T05:35:09;6.27;;;3.23;;
3337;SDS011;1682;49.286;10.788;2023-03-26T05:37:37;2.83;;;2.10;;
3337;SDS011;1682;49.286;10.788;2023-03-26T05:40:06;16.30;;;3.40;;
3337;SDS011;1682;49.286;10.788;2023-03-26T05:42:38;5.90;;;3.67;;
3337;SDS011;1682;49.286;10.788;2023-03-26T05:45:06;7.90;;;7.17;;
3337;SDS011;1682;49.286;10.788;2023-03-26T05:47:34;4.20;;;3.80;;
3337;SDS011;1682;49.286;10.788;2023-03-26T05:50:01;2.63;;;2.43;;
3337;SDS011;1682;49.286;10.788;2023-03-26T05:52:29;5.37;;;4.30;;
3337;SDS011;1682;49.286;10.788;2023-03-26T05:54:56;8.03;;;6.47;;
3337;SDS011;1682;49.286;10.788;2023-03-26T05:57:26;2.83;;;2.63;;
3337;SDS011;1682;49.286;10.788;2023-03-26T05:59:54;6.13;;;3.63;;
3337;SDS011;1682;49.286;10.788;2023-03-26T06:02:21;5.57;;;3.73;;
3337;SDS011;1682;49.286;10.788;2023-03-26T06:04:49;5.00;;;2.90;;
3337;SDS011;1682;49.286;10.788;2023-03-26T06:07:16;2.87;;;2.00;;
3337;SDS011;1682;49.286;10.788;2023-03-26T06:09:43;9.47;;;8.50;;
3337;SDS011;1682;49.286;10.788;2023-03-26T06:12:11;6.00;;;4.70;;
3337;SDS011;1682;49.286;10.788;2023-03-26T06:14:39;5.73;;;4.53;;
3337;SDS011;1682;49.286;10.788;2023-03-26T06:17:08;6.17;;;5.60;;
3337;SDS011;1682;49.286;10.788;2023-03-26T06:19:35;7.60;;;4.53;;
3337;SDS011;1682;49.286;10.788;2023-03-26T06:22:02;5.47;;;5.17;;
3337;SDS011;1682;49.286;10.788;2023-03-26T06:24:30;10.20;;;5.40;;
3337;SDS011;1682;49.286;10.788;2023-03-26T06:26:58;5.73;;;4.63;;
3337;SDS011;1682;49.286;10.788;2023-03-26T06:29:26;8.77;;;7.27;;
3337;SDS011;1682;49.286;10.788;2023-03-26T06:31:54;9.10;;;8.30;;
3337;SDS011;1682;49.286;10.788;2023-03-26T06:34:22;9.73;;;7.30;;
3337;SDS011;1682;49.286;10.788;2023-03-26T06:36:49;3.97;;;3.50;;
3337;SDS011;1682;49.286;10.788;2023-03-26T06:39:17;11.30;;;6.00;;
3337;SDS011;1682;49.286;10.788;2023-03-26T06:41:45;6.20;;;5.27;;
3337;SDS011;1682;49.286;10.788;2023-03-26T06:44:12;5.03;;;4.53;;
3337;SDS011;1682;49.286;10.788;2023-03-26T06:46:39;3.67;;;3.37;;
3337;SDS011;1682;49.286;10.788;2023-03-26T06:49:08;6.70;;;6.20;;
3337;SDS011;1682;49.286;10.788;2023-03-26T06:51:35;4.47;;;4.07;;
3337;SDS011;1682;49.286;10.788;2023-03-26T06:54:04;13.60;;;7.27;;
3337;SDS011;1682;49.286;10.788;2023-03-26T06:56:32;3.73;;;2.93;;
3337;SDS011;1682;49.286;10.788;2023-03-26T06:58:59;3.20;;;3.00;;
3337;SDS011;1682;49.286;10.788;2023-03-26T07:01:26;4.90;;;4.20;;
3337;SDS011;1682;49.286;10.788;2023-03-26T07:03:53;3.97;;;3.67;;
3337;SDS011;1682;49.286;10.788;2023-03-26T07:06:22;3.60;;;3.13;;
3337;SDS011;1682;49.286;10.788;2023-03-26T07:08:49;3.20;;;2.80;;
3337;SDS011;1682;49.286;10.788;2023-03-26T07:11:16;3.77;;;3.33;;
3337;SDS011;1682;49.286;10.788;2023-03-26T07:13:44;8.10;;;5.33;;
3337;SDS011;1682;49.286;10.788;2023-03-26T07:16:12;6.63;;;2.77;;
3337;SDS011;1682;49.286;10.788;2023-03-26T07:18:39;4.47;;;3.13;;
3337;SDS011;1682;49.286;10.788;2023-03-26T07:21:07;7.20;;;3.00;;
3337;SDS011;1682;49.286;10.788;2023-03-26T07:23:36;6.10;;;3.53;;
3337;SDS011;1682;49.286;10.788;2023-03-26T07:26:09;8.33;;;2.30;;
3337;SDS011;1682;49.286;10.788;2023-03-26T07:28:38;5.33;;;3.43;;
3337;SDS011;1682;49.286;10.788;2023-03-26T07:31:14;3.87;;;2.40;;
3337;SDS011;1682;49.286;10.788;2023-03-26T07:33:47;3.50;;;2.47;;
3337;SDS011;1682;49.286;10.788;2023-03-26T07:36:19;3.97;;;2.53;;
3337;SDS011;1682;49.286;10.788;2023-03-26T07:38:54;4.40;;;3.00;;
3337;SDS011;1682;49.286;10.788;2023-03-26T07:41:27;4.90;;;3.17;;
3337;SDS011;1682;49.286;10.788;2023-03-26T07:44:00;2.07;;;1.87;;
3337;SDS011;1682;49.286;10.788;2023-03-26T07:46:31;3.20;;;2.90;;
3337;SDS011;1682;49.286;10.788;2023-03-26T07:49:00;4.07;;;3.27;;
3337;SDS011;1682;49.286;10.788;2023-03-26T07:51:28;3.40;;;2.57;;
3337;SDS011;1682;49.286;10.788;2023-03-26T07:53:57;5.37;;;3.60;;
3337;SDS011;1682;49.286;10.788;2023-03-26T07:56:25;7.83;;;3.03;;
3337;SDS011;1682;49.286;10.788;2023-03-26T07:58:58;3.37;;;3.07;;
3337;SDS011;1682;49.286;10.788;2023-03-26T08:01:32;15.15;;;2.95;;
3337;SDS011;1682;49.286;10.788;2023-03-26T08:04:09;6.33;;;4.77;;
3337;SDS011;1682;49.286;10.788;2023-03-26T08:06:42;6.40;;;5.10;;
3337;SDS011;1682;49.286;10.788;2023-03-26T08:09:16;6.03;;;2.93;;
3337;SDS011;1682;49.286;10.788;2023-03-26T08:11:47;7.77;;;3.30;;
3337;SDS011;1682;49.286;10.788;2023-03-26T08:14:26;2.53;;;2.33;;
3337;SDS011;1682;49.286;10.788;2023-03-26T08:16:59;5.20;;;3.33;;
3337;SDS011;1682;49.286;10.788;2023-03-26T08:19:31;2.40;;;2.20;;
3337;SDS011;1682;49.286;10.788;2023-03-26T08:22:06;5.60;;;3.00;;
3337;SDS011;1682;49.286;10.788;2023-03-26T08:24:38;7.53;;;4.10;;
3337;SDS011;1682;49.286;10.788;2023-03-26T08:27:09;6.00;;;4.00;;
3337;SDS011;1682;49.286;10.788;2023-03-26T08:29:41;3.90;;;2.57;;
3337;SDS011;1682;49.286;10.788;2023-03-26T08:32:12;6.10;;;3.10;;
3337;SDS011;1682;49.286;10.788;2023-03-26T08:34:39;4.33;;;3.23;;
3337;SDS011;1682;49.286;10.788;2023-03-26T08:37:07;8.17;;;4.33;;
3337;SDS011;1682;49.286;10.788;2023-03-26T08:39:35;6.73;;;3.80;;
3337;SDS011;1682;49.286;10.788;2023-03-26T08:42:23;5.73;;;3.77;;
3337;SDS011;1682;49.286;10.788;2023-03-26T08:47:52;6.90;;;2.70;;
3337;SDS011;1682;49.286;10.788;2023-03-26T08:50:48;7.80;;;4.30;;
3337;SDS011;1682;49.286;10.788;2023-03-26T08:53:27;6.07;;;3.73;;
3337;SDS011;1682;49.286;10.788;2023-03-26T08:56:00;7.43;;;4.07;;
3337;SDS011;1682;49.286;10.788;2023-03-26T08:58:34;6.87;;;2.70;;
3337;SDS011;1682;49.286;10.788;2023-03-26T09:04:13;6.03;;;3.80;;
3337;SDS011;1682;49.286;10.788;2023-03-26T09:12:42;4.40;;;3.80;;
3337;SDS011;1682;49.286;10.788;2023-03-26T09:15:29;10.20;;;4.87;;
3337;SDS011;1682;49.286;10.788;2023-03-26T09:20:53;7.63;;;2.73;;
3337;SDS011;1682;49.286;10.788;2023-03-26T09:23:25;4.07;;;3.20;;
3337;SDS011;1682;49.286;10.788;2023-03-26T09:34:27;3.13;;;2.80;;
3337;SDS011;1682;49.286;10.788;2023-03-26T09:36:55;3.70;;;3.40;;
3337;SDS011;1682;49.286;10.788;2023-03-26T09:39:33;4.63;;;3.50;;
3337;SDS011;1682;49.286;10.788;2023-03-26T09:42:08;6.43;;;3.30;;
3337;SDS011;1682;49.286;10.788;2023-03-26T09:44:49;7.00;;;3.30;;
3337;SDS011;1682;49.286;10.788;2023-03-26T09:50:23;2.50;;;2.30;;
3337;SDS011;1682;49.286;10.788;2023-03-26T09:55:49;6.53;;;3.00;;
3337;SDS011;1682;49.286;10.788;2023-03-26T09:58:32;5.13;;;2.40;;
3337;SDS011;1682;49.286;10.788;2023-03-26T10:01:06;4.33;;;2.60;;
3337;SDS011;1682;49.286;10.788;2023-03-26T10:03:39;3.47;;;2.97;;
3337;SDS011;1682;49.286;10.788;2023-03-26T10:06:12;3.67;;;2.70;;
3337;SDS011;1682;49.286;10.788;2023-03-26T10:08:50;6.87;;;2.70;;
3337;SDS011;1682;49.286;10.788;2023-03-26T10:11:20;4.57;;;1.73;;
3337;SDS011;1682;49.286;10.788;2023-03-26T10:16:41;7.40;;;2.50;;
3337;SDS011;1682;49.286;10.788;2023-03-26T10:19:18;4.03;;;1.90;;
3337;SDS011;1682;49.286;10.788;2023-03-26T10:21:49;2.00;;;1.80;;
3337;SDS011;1682;49.286;10.788;2023-03-26T10:24:25;2.53;;;2.33;;
3337;SDS011;1682;49.286;10.788;2023-03-26T10:27:00;3.80;;;2.63;;
3337;SDS011;1682;49.286;10.788;2023-03-26T10:29:33;3.53;;;3.20;;
3337;SDS011;1682;49.286;10.788;2023-03-26T10:32:08;6.73;;;3.90;;
3337;SDS011;1682;49.286;10.788;2023-03-26T10:34:45;3.60;;;2.30;;
3337;SDS011;1682;49.286;10.788;2023-03-26T10:37:18;4.07;;;3.77;;
3337;SDS011;1682;49.286;10.788;2023-03-26T10:39:54;3.00;;;2.60;;
3337;SDS011;1682;49.286;10.788;2023-03-26T10:42:31;7.03;;;3.17;;
3337;SDS011;1682;49.286;10.788;2023-03-26T10:45:08;3.40;;;3.10;;
3337;SDS011;1682;49.286;10.788;2023-03-26T10:50:31;4.10;;;3.03;;
3337;SDS011;1682;49.286;10.788;2023-03-26T10:53:03;5.80;;;2.80;;
3337;SDS011;1682;49.286;10.788;2023-03-26T10:55:32;3.30;;;3.00;;
3337;SDS011;1682;49.286;10.788;2023-03-26T10:58:02;6.43;;;4.30;;
3337;SDS011;1682;49.286;10.788;2023-03-26T11:00:36;5.53;;;2.53;;
3337;SDS011;1682;49.286;10.788;2023-03-26T11:03:20;2.50;;;2.30;;
3337;SDS011;1682;49.286;10.788;2023-03-26T11:05:54;6.90;;;4.90;;
3337;SDS011;1682;49.286;10.788;2023-03-26T11:08:27;5.93;;;4.63;;
3337;SDS011;1682;49.286;10.788;2023-03-26T11:10:58;7.97;;;3.90;;
3337;SDS011;1682;49.286;10.788;2023-03-26T11:13:33;3.33;;;2.30;;
3337;SDS011;1682;49.286;10.788;2023-03-26T11:16:04;2.40;;;2.20;;
3337;SDS011;1682;49.286;10.788;2023-03-26T11:18:37;5.50;;;2.90;;
3337;SDS011;1682;49.286;10.788;2023-03-26T11:21:07;3.63;;;2.27;;
3337;SDS011;1682;49.286;10.788;2023-03-26T11:23:39;7.13;;;2.60;;
3337;SDS011;1682;49.286;10.788;2023-03-26T11:26:10;4.60;;;2.30;;
3337;SDS011;1682;49.286;10.788;2023-03-26T11:28:49;1.80;;;1.70;;
3337;SDS011;1682;49.286;10.788;2023-03-26T11:31:22;4.40;;;2.73;;
3337;SDS011;1682;49.286;10.788;2023-03-26T11:33:52;7.67;;;3.60;;
3337;SDS011;1682;49.286;10.788;2023-03-26T11:36:21;4.77;;;2.80;;
3337;SDS011;1682;49.286;10.788;2023-03-26T11:38:52;5.27;;;3.47;;
3337;SDS011;1682;49.286;10.788;2023-03-26T11:41:21;6.27;;;4.13;;
3337;SDS011;1682;49.286;10.788;2023-03-26T11:43:50;5.03;;;2.53;;
3337;SDS011;1682;49.286;10.788;2023-03-26T11:46:21;1.87;;;1.77;;
3337;SDS011;1682;49.286;10.788;2023-03-26T11:48:49;2.90;;;2.20;;
3337;SDS011;1682;49.286;10.788;2023-03-26T11:51:22;2.07;;;1.97;;
3337;SDS011;1682;49.286;10.788;2023-03-26T11:53:52;3.50;;;2.73;;
3337;SDS011;1682;49.286;10.788;2023-03-26T11:56:23;2.77;;;2.40;;
3337;SDS011;1682;49.286;10.788;2023-03-26T11:58:53;3.67;;;2.07;;
3337;SDS011;1682;49.286;10.788;2023-03-26T12:01:23;2.37;;;1.90;;
3337;SDS011;1682;49.286;10.788;2023-03-26T12:03:55;4.37;;;2.27;;
3337;SDS011;1682;49.286;10.788;2023-03-26T12:06:23;3.20;;;1.40;;
3337;SDS011;1682;49.286;10.788;2023-03-26T12:08:54;4.80;;;2.17;;
3337;SDS011;1682;49.286;10.788;2023-03-26T12:11:23;7.30;;;4.53;;
3337;SDS011;1682;49.286;10.788;2023-03-26T12:13:53;1.87;;;1.77;;
3337;SDS011;1682;49.286;10.788;2023-03-26T12:16:21;2.40;;;2.00;;
3337;SDS011;1682;49.286;10.788;2023-03-26T12:18:56;3.00;;;2.80;;
3337;SDS011;1682;49.286;10.788;2023-03-26T12:21:24;2.30;;;1.83;;
3337;SDS011;1682;49.286;10.788;2023-03-26T12:23:57;1.30;;;1.20;;
3337;SDS011;1682;49.286;10.788;2023-03-26T12:26:29;2.00;;;1.60;;
3337;SDS011;1682;49.286;10.788;2023-03-26T12:28:58;2.63;;;1.50;;
3337;SDS011;1682;49.286;10.788;2023-03-26T12:31:30;1.97;;;1.80;;
3337;SDS011;1682;49.286;10.788;2023-03-26T12:34:10;2.40;;;1.40;;
3337;SDS011;1682;49.286;10.788;2023-03-26T12:36:39;1.60;;;1.50;;
3337;SDS011;1682;49.286;10.788;2023-03-26T12:42:24;1.60;;;1.50;;
3337;SDS011;1682;49.286;10.788;2023-03-26T12:44:52;4.00;;;2.53;;
3337;SDS011;1682;49.286;10.788;2023-03-26T12:47:24;1.97;;;1.60;;
3337;SDS011;1682;49.286;10.788;2023-03-26T12:49:52;1.30;;;1.20;;
3337;SDS011;1682;49.286;10.788;2023-03-26T12:52:25;1.07;;;0.90;;
3337;SDS011;1682;49.286;10.788;2023-03-26T12:54:56;2.23;;;1.00;;
3337;SDS011;1682;49.286;10.788;2023-03-26T12:57:27;1.30;;;1.20;;
3337;SDS011;1682;49.286;10.788;2023-03-26T13:00:07;3.23;;;1.30;;
3337;SDS011;1682;49.286;10.788;2023-03-26T13:02:53;1.00;;;1.00;;
3337;SDS011;1682;49.286;10.788;2023-03-26T13:05:32;1.63;;;0.90;;
3337;SDS011;1682;49.286;10.788;2023-03-26T13:08:05;1.37;;;1.27;;
3337;SDS011;1682;49.286;10.788;2023-03-26T13:10:47;1.10;;;1.00;;
3337;SDS011;1682;49.286;10.788;2023-03-26T13:13:30;1.30;;;1.20;;
3337;SDS011;1682;49.286;10.788;2023-03-26T13:16:00;1.50;;;1.13;;
3337;SDS011;1682;49.286;10.788;2023-03-26T13:18:32;2.37;;;1.23;;
3337;SDS011;1682;49.286;10.788;2023-03-26T13:21:02;1.10;;;1.00;;
3337;SDS011;1682;49.286;10.788;2023-03-26T13:23:34;2.40;;;2.27;;
3337;SDS011;1682;49.286;10.788;2023-03-26T13:26:08;1.73;;;1.60;;
3337;SDS011;1682;49.286;10.788;2023-03-26T13:28:40;3.53;;;1.33;;
3337;SDS011;1682;49.286;10.788;2023-03-26T13:31:09;1.70;;;1.47;;
3337;SDS011;1682;49.286;10.788;2023-03-26T13:33:43;1.47;;;1.30;;
3337;SDS011;1682;49.286;10.788;2023-03-26T13:36:13;1.20;;;1.10;;
3337;SDS011;1682;49.286;10.788;2023-03-26T13:38:44;1.00;;;0.87;;
3337;SDS011;1682;49.286;10.788;2023-03-26T13:41:19;1.13;;;0.90;;
3337;SDS011;1682;49.286;10.788;2023-03-26T13:43:54;1.87;;;1.00;;
3337;SDS011;1682;49.286;10.788;2023-03-26T13:46:25;1.10;;;1.00;;
3337;SDS011;1682;49.286;10.788;2023-03-26T13:48:56;1.90;;;1.20;;
3337;SDS011;1682;49.286;10.788;2023-03-26T13:51:24;1.63;;;1.50;;
3337;SDS011;1682;49.286;10.788;2023-03-26T13:53:54;2.20;;;1.50;;
3337;SDS011;1682;49.286;10.788;2023-03-26T13:56:24;2.10;;;1.73;;
3337;SDS011;1682;49.286;10.788;2023-03-26T13:58:55;1.83;;;1.20;;
3337;SDS011;1682;49.286;10.788;2023-03-26T14:01:26;2.40;;;1.60;;
3337;SDS011;1682;49.286;10.788;2023-03-26T14:03:59;1.20;;;0.90;;
3337;SDS011;1682;49.286;10.788;2023-03-26T14:06:30;1.63;;;1.07;;
3337;SDS011;1682;49.286;10.788;2023-03-26T14:08:59;1.30;;;1.20;;
3337;SDS011;1682;49.286;10.788;2023-03-26T14:11:30;2.20;;;1.20;;
3337;SDS011;1682;49.286;10.788;2023-03-26T14:14:02;1.10;;;1.00;;
3337;SDS011;1682;49.286;10.788;2023-03-26T14:16:33;0.80;;;0.80;;
3337;SDS011;1682;49.286;10.788;2023-03-26T14:19:03;6.57;;;4.90;;
3337;SDS011;1682;49.286;10.788;2023-03-26T14:21:38;2.97;;;0.80;;
3337;SDS011;1682;49.286;10.788;2023-03-26T14:24:14;1.07;;;1.00;;
3337;SDS011;1682;49.286;10.788;2023-03-26T14:26:48;3.07;;;2.50;;
3337;SDS011;1682;49.286;10.788;2023-03-26T14:29:40;3.07;;;1.10;;
3337;SDS011;1682;49.286;10.788;2023-03-26T14:32:14;0.80;;;0.70;;
3337;SDS011;1682;49.286;10.788;2023-03-26T14:34:57;2.10;;;0.70;;
3337;SDS011;1682;49.286;10.788;2023-03-26T14:37:35;1.60;;;1.20;;
3337;SDS011;1682;49.286;10.788;2023-03-26T14:42:52;1.17;;;0.83;;
3337;SDS011;1682;49.286;10.788;2023-03-26T14:45:32;1.37;;;0.90;;
3337;SDS011;1682;49.286;10.788;2023-03-26T14:48:11;1.83;;;1.00;;
3337;SDS011;1682;49.286;10.788;2023-03-26T14:50:46;4.80;;;1.40;;
3337;SDS011;1682;49.286;10.788;2023-03-26T14:53:22;3.53;;;1.37;;
3337;SDS011;1682;49.286;10.788;2023-03-26T14:56:01;1.40;;;1.10;;
3337;SDS011;1682;49.286;10.788;2023-03-26T14:58:43;1.40;;;1.07;;
3337;SDS011;1682;49.286;10.788;2023-03-26T15:01:26;5.90;;;5.20;;
3337;SDS011;1682;49.286;10.788;2023-03-26T15:06:57;1.27;;;0.87;;
3337;SDS011;1682;49.286;10.788;2023-03-26T15:09:44;0.80;;;0.80;;
3337;SDS011;1682;49.286;10.788;2023-03-26T15:12:24;1.43;;;0.80;;
3337;SDS011;1682;49.286;10.788;2023-03-26T15:18:00;2.10;;;1.07;;
3337;SDS011;1682;49.286;10.788;2023-03-26T15:20:42;1.83;;;1.07;;
3337;SDS011;1682;49.286;10.788;2023-03-26T15:29:18;3.80;;;1.30;;
3337;SDS011;1682;49.286;10.788;2023-03-26T15:31:56;1.73;;;0.97;;
3337;SDS011;1682;49.286;10.788;2023-03-26T15:34:38;0.80;;;0.80;;
3337;SDS011;1682;49.286;10.788;2023-03-26T15:37:26;1.10;;;1.00;;
3337;SDS011;1682;49.286;10.788;2023-03-26T15:40:05;1.80;;;1.00;;
3337;SDS011;1682;49.286;10.788;2023-03-26T15:42:40;1.43;;;0.97;;
3337;SDS011;1682;49.286;10.788;2023-03-26T15:45:14;0.70;;;0.70;;
3337;SDS011;1682;49.286;10.788;2023-03-26T15:47:55;1.80;;;1.20;;
3337;SDS011;1682;49.286;10.788;2023-03-26T15:50:34;2.07;;;1.93;;
3337;SDS011;1682;49.286;10.788;2023-03-26T15:53:04;3.93;;;0.90;;
3337;SDS011;1682;49.286;10.788;2023-03-26T15:55:39;1.57;;;0.80;;
3337;SDS011;1682;49.286;10.788;2023-03-26T15:58:10;4.30;;;1.40;;
3337;SDS011;1682;49.286;10.788;2023-03-26T16:00:42;1.57;;;1.37;;
3337;SDS011;1682;49.286;10.788;2023-03-26T16:03:16;1.50;;;1.20;;
3337;SDS011;1682;49.286;10.788;2023-03-26T16:08:40;1.93;;;1.70;;
3337;SDS011;1682;49.286;10.788;2023-03-26T16:11:11;2.67;;;2.00;;
3337;SDS011;1682;49.286;10.788;2023-03-26T16:13:39;2.13;;;2.03;;
3337;SDS011;1682;49.286;10.788;2023-03-26T16:18:53;1.90;;;1.80;;
3337;SDS011;1682;49.286;10.788;2023-03-26T16:24:19;5.23;;;2.10;;